sensor_id;sensor_type;location;lat;lon;timestamp;temperature;humidity
60868;DHT22;46702;48.370;10.794;2024-03-06T00:01:04;6.00;99.90
60868;DHT22;46702;48.370;10.794;2024-03-06T00:03:29;6.00;99.90
60868;DHT22;46702;48.370;10.794;2024-03-06T00:05:55;6.00;99.90
60868;DHT22;46702;48.370;10.794;2024-03-06T00:08:21;6.00;99.90
60868;DHT22;46702;48.370;10.794;2024-03-06T00:10:46;6.00;99.90
60868;DHT22;46702;48.370;10.794;2024-03-06T00:13:12;5.90;99.90
60868;DHT22;46702;48.370;10.794;2024-03-06T00:15:38;5.90;99.90
60868;DHT22;46702;48.370;10.794;2024-03-06T00:18:04;5.80;99.90
60868;DHT22;46702;48.370;10.794;2024-03-06T00:20:30;5.70;99.90
60868;DHT22;46702;48.370;10.794;2024-03-06T00:22:56;5.70;99.90
60868;DHT22;46702;48.370;10.794;2024-03-06T00:25:22;5.70;99.90
60868;DHT22;46702;48.370;10.794;2024-03-06T00:27:47;5.70;99.90
60868;DHT22;46702;48.370;10.794;2024-03-06T00:30:13;5.70;99.90
60868;DHT22;46702;48.370;10.794;2024-03-06T00:32:38;5.70;99.90
60868;DHT22;46702;48.370;10.794;2024-03-06T00:35:05;5.70;99.90
60868;DHT22;46702;48.370;10.794;2024-03-06T00:37:31;5.70;99.90
60868;DHT22;46702;48.370;10.794;2024-03-06T00:39:57;5.70;99.90
60868;DHT22;46702;48.370;10.794;2024-03-06T00:42:22;5.80;99.90
60868;DHT22;46702;48.370;10.794;2024-03-06T00:44:48;5.80;99.90
60868;DHT22;46702;48.370;10.794;2024-03-06T00:47:14;5.80;99.90
60868;DHT22;46702;48.370;10.794;2024-03-06T00:49:39;5.80;99.90
60868;DHT22;46702;48.370;10.794;2024-03-06T00:52:07;5.80;99.90
60868;DHT22;46702;48.370;10.794;2024-03-06T00:54:33;5.80;99.90
60868;DHT22;46702;48.370;10.794;2024-03-06T00:56:59;5.70;99.90
60868;DHT22;46702;48.370;10.794;2024-03-06T00:59:25;5.70;99.90
60868;DHT22;46702;48.370;10.794;2024-03-06T01:01:50;5.70;99.90
60868;DHT22;46702;48.370;10.794;2024-03-06T01:04:17;5.70;99.90
60868;DHT22;46702;48.370;10.794;2024-03-06T01:06:42;5.80;99.90
60868;DHT22;46702;48.370;10.794;2024-03-06T01:09:08;5.80;99.90
60868;DHT22;46702;48.370;10.794;2024-03-06T01:11:33;5.80;99.90
60868;DHT22;46702;48.370;10.794;2024-03-06T01:13:59;5.80;99.90
60868;DHT22;46702;48.370;10.794;2024-03-06T01:16:25;5.80;99.90
60868;DHT22;46702;48.370;10.794;2024-03-06T01:18:51;5.70;99.90
60868;DHT22;46702;48.370;10.794;2024-03-06T01:21:16;5.80;99.90
60868;DHT22;46702;48.370;10.794;2024-03-06T01:23:42;5.80;99.90
60868;DHT22;46702;48.370;10.794;2024-03-06T01:26:08;5.70;99.90
60868;DHT22;46702;48.370;10.794;2024-03-06T01:28:34;5.70;99.90
60868;DHT22;46702;48.370;10.794;2024-03-06T01:30:59;5.80;99.90
60868;DHT22;46702;48.370;10.794;2024-03-06T01:33:25;5.80;99.90
60868;DHT22;46702;48.370;10.794;2024-03-06T01:35:51;5.70;99.90
60868;DHT22;46702;48.370;10.794;2024-03-06T01:38:17;5.80;99.90
60868;DHT22;46702;48.370;10.794;2024-03-06T01:40:43;5.80;99.90
60868;DHT22;46702;48.370;10.794;2024-03-06T01:43:19;5.80;99.90
60868;DHT22;46702;48.370;10.794;2024-03-06T01:45:45;5.80;99.90
60868;DHT22;46702;48.370;10.794;2024-03-06T01:48:12;5.80;99.90
60868;DHT22;46702;48.370;10.794;2024-03-06T01:50:38;5.80;99.90
60868;DHT22;46702;48.370;10.794;2024-03-06T01:53:03;5.80;99.90
60868;DHT22;46702;48.370;10.794;2024-03-06T01:55:29;5.70;99.90
60868;DHT22;46702;48.370;10.794;2024-03-06T01:57:55;5.70;99.90
60868;DHT22;46702;48.370;10.794;2024-03-06T02:00:22;5.70;99.90
60868;DHT22;46702;48.370;10.794;2024-03-06T02:02:48;5.70;99.90
60868;DHT22;46702;48.370;10.794;2024-03-06T02:05:14;5.70;99.90
60868;DHT22;46702;48.370;10.794;2024-03-06T02:07:39;5.70;99.90
60868;DHT22;46702;48.370;10.794;2024-03-06T02:10:08;5.70;99.90
60868;DHT22;46702;48.370;10.794;2024-03-06T02:12:36;5.80;99.90
60868;DHT22;46702;48.370;10.794;2024-03-06T02:15:02;5.70;99.90
60868;DHT22;46702;48.370;10.794;2024-03-06T02:17:28;5.70;99.90
60868;DHT22;46702;48.370;10.794;2024-03-06T02:19:56;5.70;99.90
60868;DHT22;46702;48.370;10.794;2024-03-06T02:22:23;5.70;99.90
60868;DHT22;46702;48.370;10.794;2024-03-06T02:24:49;5.70;99.90
60868;DHT22;46702;48.370;10.794;2024-03-06T02:27:15;5.70;99.90
60868;DHT22;46702;48.370;10.794;2024-03-06T02:29:42;5.60;99.90
60868;DHT22;46702;48.370;10.794;2024-03-06T02:32:08;5.60;99.90
60868;DHT22;46702;48.370;10.794;2024-03-06T02:34:34;5.60;99.90
60868;DHT22;46702;48.370;10.794;2024-03-06T02:36:59;5.60;99.90
60868;DHT22;46702;48.370;10.794;2024-03-06T02:39:25;5.60;99.90
60868;DHT22;46702;48.370;10.794;2024-03-06T02:41:51;5.60;99.90
60868;DHT22;46702;48.370;10.794;2024-03-06T02:44:16;5.60;99.90
60868;DHT22;46702;48.370;10.794;2024-03-06T02:46:47;5.70;99.90
60868;DHT22;46702;48.370;10.794;2024-03-06T02:49:13;5.60;99.90
60868;DHT22;46702;48.370;10.794;2024-03-06T02:51:41;5.60;99.90
60868;DHT22;46702;48.370;10.794;2024-03-06T02:54:07;5.60;99.90
60868;DHT22;46702;48.370;10.794;2024-03-06T02:56:33;5.60;99.90
60868;DHT22;46702;48.370;10.794;2024-03-06T02:58:58;5.60;99.90
60868;DHT22;46702;48.370;10.794;2024-03-06T03:01:27;5.60;99.90
60868;DHT22;46702;48.370;10.794;2024-03-06T03:03:53;5.50;99.90
60868;DHT22;46702;48.370;10.794;2024-03-06T03:06:19;5.50;99.90
60868;DHT22;46702;48.370;10.794;2024-03-06T03:08:45;5.50;99.90
60868;DHT22;46702;48.370;10.794;2024-03-06T03:11:10;5.60;99.90
60868;DHT22;46702;48.370;10.794;2024-03-06T03:13:36;5.50;99.90
60868;DHT22;46702;48.370;10.794;2024-03-06T03:16:02;5.60;99.90
60868;DHT22;46702;48.370;10.794;2024-03-06T03:18:29;5.50;99.90
60868;DHT22;46702;48.370;10.794;2024-03-06T03:20:55;5.60;99.90
60868;DHT22;46702;48.370;10.794;2024-03-06T03:23:21;5.60;99.90
60868;DHT22;46702;48.370;10.794;2024-03-06T03:25:49;5.60;99.90
60868;DHT22;46702;48.370;10.794;2024-03-06T03:28:15;5.60;99.90
60868;DHT22;46702;48.370;10.794;2024-03-06T03:30:44;5.60;99.90
60868;DHT22;46702;48.370;10.794;2024-03-06T03:33:10;5.60;99.90
60868;DHT22;46702;48.370;10.794;2024-03-06T03:35:35;5.60;99.90
60868;DHT22;46702;48.370;10.794;2024-03-06T03:38:01;5.60;99.90
60868;DHT22;46702;48.370;10.794;2024-03-06T03:40:27;5.70;99.90
60868;DHT22;46702;48.370;10.794;2024-03-06T03:42:52;5.60;99.90
60868;DHT22;46702;48.370;10.794;2024-03-06T03:45:18;5.70;99.90
60868;DHT22;46702;48.370;10.794;2024-03-06T03:47:45;5.70;99.90
60868;DHT22;46702;48.370;10.794;2024-03-06T03:50:11;5.70;99.90
60868;DHT22;46702;48.370;10.794;2024-03-06T03:52:36;5.70;99.90
60868;DHT22;46702;48.370;10.794;2024-03-06T03:55:07;5.70;99.90
60868;DHT22;46702;48.370;10.794;2024-03-06T03:57:33;5.70;99.90
60868;DHT22;46702;48.370;10.794;2024-03-06T03:59:58;5.80;99.90
60868;DHT22;46702;48.370;10.794;2024-03-06T04:02:24;5.70;99.90
60868;DHT22;46702;48.370;10.794;2024-03-06T04:04:50;5.70;99.90
60868;DHT22;46702;48.370;10.794;2024-03-06T04:07:16;5.70;99.90
60868;DHT22;46702;48.370;10.794;2024-03-06T04:09:44;5.70;99.90
60868;DHT22;46702;48.370;10.794;2024-03-06T04:12:09;5.70;99.90
60868;DHT22;46702;48.370;10.794;2024-03-06T04:14:35;5.70;99.90
60868;DHT22;46702;48.370;10.794;2024-03-06T04:17:01;5.70;99.90
60868;DHT22;46702;48.370;10.794;2024-03-06T04:19:29;5.70;99.90
60868;DHT22;46702;48.370;10.794;2024-03-06T04:21:54;5.70;99.90
60868;DHT22;46702;48.370;10.794;2024-03-06T04:24:20;5.70;99.90
60868;DHT22;46702;48.370;10.794;2024-03-06T04:26:46;5.70;99.90
60868;DHT22;46702;48.370;10.794;2024-03-06T04:29:11;5.70;99.90
60868;DHT22;46702;48.370;10.794;2024-03-06T04:31:37;5.70;99.90
60868;DHT22;46702;48.370;10.794;2024-03-06T04:34:03;5.70;99.90
60868;DHT22;46702;48.370;10.794;2024-03-06T04:36:28;5.70;99.90
60868;DHT22;46702;48.370;10.794;2024-03-06T04:38:54;5.70;99.90
60868;DHT22;46702;48.370;10.794;2024-03-06T04:41:20;5.60;99.90
60868;DHT22;46702;48.370;10.794;2024-03-06T04:43:45;5.60;99.90
60868;DHT22;46702;48.370;10.794;2024-03-06T04:46:14;5.70;99.90
60868;DHT22;46702;48.370;10.794;2024-03-06T04:48:40;5.60;99.90
60868;DHT22;46702;48.370;10.794;2024-03-06T04:51:05;5.70;99.90
60868;DHT22;46702;48.370;10.794;2024-03-06T04:53:31;5.60;99.90
60868;DHT22;46702;48.370;10.794;2024-03-06T04:55:57;5.60;99.90
60868;DHT22;46702;48.370;10.794;2024-03-06T04:58:22;5.60;99.90
60868;DHT22;46702;48.370;10.794;2024-03-06T05:00:48;5.50;99.90
60868;DHT22;46702;48.370;10.794;2024-03-06T05:03:13;5.50;99.90
60868;DHT22;46702;48.370;10.794;2024-03-06T05:05:40;5.50;99.90
60868;DHT22;46702;48.370;10.794;2024-03-06T05:08:06;5.60;99.90
60868;DHT22;46702;48.370;10.794;2024-03-06T05:10:32;5.50;99.90
60868;DHT22;46702;48.370;10.794;2024-03-06T05:12:58;5.60;99.90
60868;DHT22;46702;48.370;10.794;2024-03-06T05:15:23;5.60;99.90
60868;DHT22;46702;48.370;10.794;2024-03-06T05:17:49;5.60;99.90
60868;DHT22;46702;48.370;10.794;2024-03-06T05:20:15;5.60;99.90
60868;DHT22;46702;48.370;10.794;2024-03-06T05:22:42;5.50;99.90
60868;DHT22;46702;48.370;10.794;2024-03-06T05:25:07;5.60;99.90
60868;DHT22;46702;48.370;10.794;2024-03-06T05:27:33;5.60;99.90
60868;DHT22;46702;48.370;10.794;2024-03-06T05:29:59;5.60;99.90
60868;DHT22;46702;48.370;10.794;2024-03-06T05:32:25;5.50;99.90
60868;DHT22;46702;48.370;10.794;2024-03-06T05:34:50;5.60;99.90
60868;DHT22;46702;48.370;10.794;2024-03-06T05:37:16;5.60;99.90
60868;DHT22;46702;48.370;10.794;2024-03-06T05:39:42;5.50;99.90
60868;DHT22;46702;48.370;10.794;2024-03-06T05:42:11;5.50;99.90
60868;DHT22;46702;48.370;10.794;2024-03-06T05:44:37;5.60;99.90
60868;DHT22;46702;48.370;10.794;2024-03-06T05:47:03;5.50;99.90
60868;DHT22;46702;48.370;10.794;2024-03-06T05:49:29;5.50;99.90
60868;DHT22;46702;48.370;10.794;2024-03-06T05:51:55;5.50;99.90
60868;DHT22;46702;48.370;10.794;2024-03-06T05:54:21;5.50;99.90
60868;DHT22;46702;48.370;10.794;2024-03-06T05:56:51;5.50;99.90
60868;DHT22;46702;48.370;10.794;2024-03-06T05:59:26;5.50;99.90
60868;DHT22;46702;48.370;10.794;2024-03-06T06:02:10;5.50;99.90
60868;DHT22;46702;48.370;10.794;2024-03-06T06:08:14;5.50;99.90
60868;DHT22;46702;48.370;10.794;2024-03-06T06:11:09;5.60;99.90
60868;DHT22;46702;48.370;10.794;2024-03-06T06:21:08;5.50;99.90
60868;DHT22;46702;48.370;10.794;2024-03-06T06:34:27;5.60;99.90
60868;DHT22;46702;48.370;10.794;2024-03-06T06:36:53;5.60;99.90
60868;DHT22;46702;48.370;10.794;2024-03-06T06:39:19;5.60;99.90
60868;DHT22;46702;48.370;10.794;2024-03-06T06:41:45;5.60;99.90
60868;DHT22;46702;48.370;10.794;2024-03-06T06:44:10;5.60;99.90
60868;DHT22;46702;48.370;10.794;2024-03-06T06:46:36;5.60;99.90
60868;DHT22;46702;48.370;10.794;2024-03-06T06:49:02;5.60;99.90
60868;DHT22;46702;48.370;10.794;2024-03-06T06:51:28;5.60;99.90
60868;DHT22;46702;48.370;10.794;2024-03-06T06:53:54;5.60;99.90
60868;DHT22;46702;48.370;10.794;2024-03-06T06:56:20;5.60;99.90
60868;DHT22;46702;48.370;10.794;2024-03-06T06:58:49;5.60;99.90
60868;DHT22;46702;48.370;10.794;2024-03-06T07:01:15;5.60;99.90
60868;DHT22;46702;48.370;10.794;2024-03-06T07:03:42;5.70;99.90
60868;DHT22;46702;48.370;10.794;2024-03-06T07:06:08;5.60;99.90
60868;DHT22;46702;48.370;10.794;2024-03-06T07:08:34;5.60;99.90
60868;DHT22;46702;48.370;10.794;2024-03-06T07:10:59;5.60;99.90
60868;DHT22;46702;48.370;10.794;2024-03-06T07:13:25;5.70;99.90
60868;DHT22;46702;48.370;10.794;2024-03-06T07:15:51;5.70;99.90
60868;DHT22;46702;48.370;10.794;2024-03-06T07:18:17;5.70;99.90
60868;DHT22;46702;48.370;10.794;2024-03-06T07:20:42;5.70;99.90
60868;DHT22;46702;48.370;10.794;2024-03-06T07:23:08;5.70;99.90
60868;DHT22;46702;48.370;10.794;2024-03-06T07:25:33;5.70;99.90
60868;DHT22;46702;48.370;10.794;2024-03-06T07:28:02;5.80;99.90
60868;DHT22;46702;48.370;10.794;2024-03-06T07:30:28;5.70;99.90
60868;DHT22;46702;48.370;10.794;2024-03-06T07:32:55;5.70;99.90
60868;DHT22;46702;48.370;10.794;2024-03-06T07:35:22;5.70;99.90
60868;DHT22;46702;48.370;10.794;2024-03-06T07:37:48;5.80;99.90
60868;DHT22;46702;48.370;10.794;2024-03-06T07:40:14;5.80;99.90
60868;DHT22;46702;48.370;10.794;2024-03-06T07:42:39;5.80;99.90
60868;DHT22;46702;48.370;10.794;2024-03-06T07:45:06;5.80;99.90
60868;DHT22;46702;48.370;10.794;2024-03-06T07:47:35;5.80;99.90
60868;DHT22;46702;48.370;10.794;2024-03-06T07:50:06;5.80;99.90
60868;DHT22;46702;48.370;10.794;2024-03-06T07:52:32;5.80;99.90
60868;DHT22;46702;48.370;10.794;2024-03-06T07:54:58;5.90;99.90
60868;DHT22;46702;48.370;10.794;2024-03-06T07:57:24;5.90;99.90
60868;DHT22;46702;48.370;10.794;2024-03-06T07:59:49;5.90;99.90
60868;DHT22;46702;48.370;10.794;2024-03-06T08:02:17;5.90;99.90
60868;DHT22;46702;48.370;10.794;2024-03-06T08:04:42;5.90;99.90
60868;DHT22;46702;48.370;10.794;2024-03-06T08:07:08;5.90;99.90
60868;DHT22;46702;48.370;10.794;2024-03-06T08:09:34;5.90;99.90
60868;DHT22;46702;48.370;10.794;2024-03-06T08:12:02;6.00;99.90
60868;DHT22;46702;48.370;10.794;2024-03-06T08:14:28;6.00;99.90
60868;DHT22;46702;48.370;10.794;2024-03-06T08:16:54;6.00;99.90
60868;DHT22;46702;48.370;10.794;2024-03-06T08:19:19;6.00;99.90
60868;DHT22;46702;48.370;10.794;2024-03-06T08:21:45;6.10;99.90
60868;DHT22;46702;48.370;10.794;2024-03-06T08:24:11;6.00;99.90
60868;DHT22;46702;48.370;10.794;2024-03-06T08:26:37;6.00;99.90
60868;DHT22;46702;48.370;10.794;2024-03-06T08:29:03;6.10;99.90
60868;DHT22;46702;48.370;10.794;2024-03-06T08:31:28;6.00;99.90
60868;DHT22;46702;48.370;10.794;2024-03-06T08:33:54;6.00;99.90
60868;DHT22;46702;48.370;10.794;2024-03-06T08:36:20;6.10;99.90
60868;DHT22;46702;48.370;10.794;2024-03-06T08:38:46;6.10;99.90
60868;DHT22;46702;48.370;10.794;2024-03-06T08:41:12;6.10;99.90
60868;DHT22;46702;48.370;10.794;2024-03-06T08:43:37;6.10;99.90
60868;DHT22;46702;48.370;10.794;2024-03-06T08:46:03;6.20;99.90
60868;DHT22;46702;48.370;10.794;2024-03-06T08:48:29;6.20;99.90
60868;DHT22;46702;48.370;10.794;2024-03-06T08:50:55;6.20;99.90
60868;DHT22;46702;48.370;10.794;2024-03-06T08:53:21;6.30;99.90
60868;DHT22;46702;48.370;10.794;2024-03-06T08:55:46;6.30;99.90
60868;DHT22;46702;48.370;10.794;2024-03-06T08:58:12;6.30;99.90
60868;DHT22;46702;48.370;10.794;2024-03-06T09:00:39;6.30;99.90
60868;DHT22;46702;48.370;10.794;2024-03-06T09:03:05;6.40;99.90
60868;DHT22;46702;48.370;10.794;2024-03-06T09:05:31;6.40;99.90
60868;DHT22;46702;48.370;10.794;2024-03-06T09:07:57;6.40;99.90
60868;DHT22;46702;48.370;10.794;2024-03-06T09:10:23;6.40;99.90
60868;DHT22;46702;48.370;10.794;2024-03-06T09:12:48;6.40;99.90
60868;DHT22;46702;48.370;10.794;2024-03-06T09:15:15;6.40;99.90
60868;DHT22;46702;48.370;10.794;2024-03-06T09:17:41;6.40;99.90
60868;DHT22;46702;48.370;10.794;2024-03-06T09:20:08;6.50;99.90
60868;DHT22;46702;48.370;10.794;2024-03-06T09:22:37;6.40;99.90
60868;DHT22;46702;48.370;10.794;2024-03-06T09:25:07;6.40;99.90
60868;DHT22;46702;48.370;10.794;2024-03-06T09:27:33;6.40;99.90
60868;DHT22;46702;48.370;10.794;2024-03-06T09:29:59;6.50;99.90
60868;DHT22;46702;48.370;10.794;2024-03-06T09:32:25;6.40;99.90
60868;DHT22;46702;48.370;10.794;2024-03-06T09:34:52;6.40;99.90
60868;DHT22;46702;48.370;10.794;2024-03-06T09:37:18;6.40;99.90
60868;DHT22;46702;48.370;10.794;2024-03-06T09:39:44;6.50;99.90
60868;DHT22;46702;48.370;10.794;2024-03-06T09:42:14;6.60;99.90
60868;DHT22;46702;48.370;10.794;2024-03-06T09:44:40;6.70;99.90
60868;DHT22;46702;48.370;10.794;2024-03-06T09:47:06;6.70;99.90
60868;DHT22;46702;48.370;10.794;2024-03-06T09:49:33;6.80;99.90
60868;DHT22;46702;48.370;10.794;2024-03-06T09:52:00;6.80;99.90
60868;DHT22;46702;48.370;10.794;2024-03-06T09:54:27;6.90;99.90
60868;DHT22;46702;48.370;10.794;2024-03-06T09:56:53;6.90;99.90
60868;DHT22;46702;48.370;10.794;2024-03-06T09:59:21;7.00;99.90
60868;DHT22;46702;48.370;10.794;2024-03-06T10:01:56;6.80;99.90
60868;DHT22;46702;48.370;10.794;2024-03-06T10:04:23;6.90;99.90
60868;DHT22;46702;48.370;10.794;2024-03-06T10:06:57;6.90;99.90
60868;DHT22;46702;48.370;10.794;2024-03-06T10:09:23;6.90;99.90
60868;DHT22;46702;48.370;10.794;2024-03-06T10:11:48;6.90;99.90
60868;DHT22;46702;48.370;10.794;2024-03-06T10:14:15;7.00;99.90
60868;DHT22;46702;48.370;10.794;2024-03-06T10:16:53;7.00;99.90
60868;DHT22;46702;48.370;10.794;2024-03-06T10:19:19;7.00;99.90
60868;DHT22;46702;48.370;10.794;2024-03-06T10:21:48;7.00;99.90
60868;DHT22;46702;48.370;10.794;2024-03-06T10:24:22;7.10;99.90
60868;DHT22;46702;48.370;10.794;2024-03-06T10:26:50;7.10;99.90
60868;DHT22;46702;48.370;10.794;2024-03-06T10:29:17;7.10;99.90
60868;DHT22;46702;48.370;10.794;2024-03-06T10:31:52;7.10;99.90
60868;DHT22;46702;48.370;10.794;2024-03-06T10:34:20;7.20;99.90
60868;DHT22;46702;48.370;10.794;2024-03-06T10:39:22;7.30;99.90
60868;DHT22;46702;48.370;10.794;2024-03-06T10:41:56;7.40;99.90
60868;DHT22;46702;48.370;10.794;2024-03-06T10:44:24;7.40;99.90
60868;DHT22;46702;48.370;10.794;2024-03-06T10:47:00;7.50;99.90
60868;DHT22;46702;48.370;10.794;2024-03-06T10:49:27;7.50;99.90
60868;DHT22;46702;48.370;10.794;2024-03-06T10:52:03;7.60;99.90
60868;DHT22;46702;48.370;10.794;2024-03-06T10:54:33;7.70;99.90
60868;DHT22;46702;48.370;10.794;2024-03-06T10:57:08;7.80;99.90
60868;DHT22;46702;48.370;10.794;2024-03-06T10:59:35;7.70;99.90
60868;DHT22;46702;48.370;10.794;2024-03-06T11:02:01;7.70;99.90
60868;DHT22;46702;48.370;10.794;2024-03-06T11:04:28;7.70;99.90
60868;DHT22;46702;48.370;10.794;2024-03-06T11:06:57;7.70;99.90
60868;DHT22;46702;48.370;10.794;2024-03-06T11:09:26;7.70;99.90
60868;DHT22;46702;48.370;10.794;2024-03-06T11:11:53;7.70;99.90
60868;DHT22;46702;48.370;10.794;2024-03-06T11:14:21;7.60;99.90
60868;DHT22;46702;48.370;10.794;2024-03-06T11:17:05;7.60;99.90
60868;DHT22;46702;48.370;10.794;2024-03-06T11:19:31;7.70;99.90
60868;DHT22;46702;48.370;10.794;2024-03-06T11:21:58;7.50;99.90
60868;DHT22;46702;48.370;10.794;2024-03-06T11:24:32;7.50;99.90
60868;DHT22;46702;48.370;10.794;2024-03-06T11:27:02;7.60;99.90
60868;DHT22;46702;48.370;10.794;2024-03-06T11:29:29;7.60;99.90
60868;DHT22;46702;48.370;10.794;2024-03-06T11:32:13;7.70;99.90
60868;DHT22;46702;48.370;10.794;2024-03-06T11:34:39;7.70;99.90
60868;DHT22;46702;48.370;10.794;2024-03-06T11:37:06;7.80;99.90
60868;DHT22;46702;48.370;10.794;2024-03-06T11:39:37;7.80;99.90
60868;DHT22;46702;48.370;10.794;2024-03-06T11:42:03;7.80;99.90
60868;DHT22;46702;48.370;10.794;2024-03-06T11:44:36;7.90;99.90
60868;DHT22;46702;48.370;10.794;2024-03-06T11:47:04;7.90;99.90
60868;DHT22;46702;48.370;10.794;2024-03-06T11:49:31;7.90;99.90
60868;DHT22;46702;48.370;10.794;2024-03-06T11:52:04;7.90;99.90
60868;DHT22;46702;48.370;10.794;2024-03-06T11:54:32;8.00;99.90
60868;DHT22;46702;48.370;10.794;2024-03-06T11:57:00;8.00;99.90
60868;DHT22;46702;48.370;10.794;2024-03-06T11:59:27;8.00;99.90
60868;DHT22;46702;48.370;10.794;2024-03-06T12:01:54;8.00;99.90
60868;DHT22;46702;48.370;10.794;2024-03-06T12:04:20;8.00;99.90
60868;DHT22;46702;48.370;10.794;2024-03-06T12:06:47;7.90;99.90
60868;DHT22;46702;48.370;10.794;2024-03-06T12:09:14;7.90;99.90
60868;DHT22;46702;48.370;10.794;2024-03-06T12:11:40;7.80;99.90
60868;DHT22;46702;48.370;10.794;2024-03-06T12:14:12;7.80;99.90
60868;DHT22;46702;48.370;10.794;2024-03-06T12:16:38;7.80;99.90
60868;DHT22;46702;48.370;10.794;2024-03-06T12:19:04;7.80;99.90
60868;DHT22;46702;48.370;10.794;2024-03-06T12:21:34;7.80;99.90
60868;DHT22;46702;48.370;10.794;2024-03-06T12:24:09;7.80;99.90
60868;DHT22;46702;48.370;10.794;2024-03-06T12:26:36;7.80;99.90
60868;DHT22;46702;48.370;10.794;2024-03-06T12:29:09;7.80;99.90
60868;DHT22;46702;48.370;10.794;2024-03-06T12:31:36;7.70;99.90
60868;DHT22;46702;48.370;10.794;2024-03-06T12:34:04;7.70;99.90
60868;DHT22;46702;48.370;10.794;2024-03-06T12:36:30;7.70;99.90
60868;DHT22;46702;48.370;10.794;2024-03-06T12:39:03;7.70;99.90
60868;DHT22;46702;48.370;10.794;2024-03-06T12:41:29;7.70;99.90
60868;DHT22;46702;48.370;10.794;2024-03-06T12:43:55;7.70;99.90
60868;DHT22;46702;48.370;10.794;2024-03-06T12:46:22;7.70;99.90
60868;DHT22;46702;48.370;10.794;2024-03-06T12:48:48;7.80;99.90
60868;DHT22;46702;48.370;10.794;2024-03-06T12:51:14;7.80;99.90
60868;DHT22;46702;48.370;10.794;2024-03-06T12:53:40;7.90;99.90
60868;DHT22;46702;48.370;10.794;2024-03-06T12:56:06;7.90;99.90
60868;DHT22;46702;48.370;10.794;2024-03-06T12:58:33;7.90;99.90
60868;DHT22;46702;48.370;10.794;2024-03-06T13:01:00;7.90;99.90
60868;DHT22;46702;48.370;10.794;2024-03-06T13:03:27;7.80;99.90
60868;DHT22;46702;48.370;10.794;2024-03-06T13:05:53;7.90;99.90
60868;DHT22;46702;48.370;10.794;2024-03-06T13:08:20;7.90;99.90
60868;DHT22;46702;48.370;10.794;2024-03-06T13:10:49;7.90;99.90
60868;DHT22;46702;48.370;10.794;2024-03-06T13:13:15;7.80;99.90
60868;DHT22;46702;48.370;10.794;2024-03-06T13:15:40;7.90;99.90
60868;DHT22;46702;48.370;10.794;2024-03-06T13:18:06;7.90;99.90
60868;DHT22;46702;48.370;10.794;2024-03-06T13:20:33;8.00;99.90
60868;DHT22;46702;48.370;10.794;2024-03-06T13:22:59;8.00;99.90
60868;DHT22;46702;48.370;10.794;2024-03-06T13:25:25;7.90;99.90
60868;DHT22;46702;48.370;10.794;2024-03-06T13:27:51;7.90;99.90
60868;DHT22;46702;48.370;10.794;2024-03-06T13:30:20;7.80;99.90
60868;DHT22;46702;48.370;10.794;2024-03-06T13:32:46;7.90;99.90
60868;DHT22;46702;48.370;10.794;2024-03-06T13:35:12;7.80;99.90
60868;DHT22;46702;48.370;10.794;2024-03-06T13:37:42;7.80;99.90
60868;DHT22;46702;48.370;10.794;2024-03-06T13:40:08;7.80;99.90
60868;DHT22;46702;48.370;10.794;2024-03-06T13:42:36;7.80;99.90
60868;DHT22;46702;48.370;10.794;2024-03-06T13:45:03;7.70;99.90
60868;DHT22;46702;48.370;10.794;2024-03-06T13:47:30;7.70;99.90
60868;DHT22;46702;48.370;10.794;2024-03-06T13:49:56;7.80;99.90
60868;DHT22;46702;48.370;10.794;2024-03-06T13:52:22;7.80;99.90
60868;DHT22;46702;48.370;10.794;2024-03-06T13:54:49;7.90;99.90
60868;DHT22;46702;48.370;10.794;2024-03-06T13:57:15;7.80;99.90
60868;DHT22;46702;48.370;10.794;2024-03-06T13:59:41;7.80;99.90
60868;DHT22;46702;48.370;10.794;2024-03-06T14:02:07;7.70;99.90
60868;DHT22;46702;48.370;10.794;2024-03-06T14:04:33;7.70;99.90
60868;DHT22;46702;48.370;10.794;2024-03-06T14:06:59;7.70;99.90
60868;DHT22;46702;48.370;10.794;2024-03-06T14:09:26;7.60;99.90
60868;DHT22;46702;48.370;10.794;2024-03-06T14:11:53;7.60;99.90
60868;DHT22;46702;48.370;10.794;2024-03-06T14:14:19;7.60;99.90
60868;DHT22;46702;48.370;10.794;2024-03-06T14:16:46;7.60;99.90
60868;DHT22;46702;48.370;10.794;2024-03-06T14:19:12;7.50;99.90
60868;DHT22;46702;48.370;10.794;2024-03-06T14:21:38;7.50;99.90
60868;DHT22;46702;48.370;10.794;2024-03-06T14:24:04;7.50;99.90
60868;DHT22;46702;48.370;10.794;2024-03-06T14:26:34;7.50;99.90
60868;DHT22;46702;48.370;10.794;2024-03-06T14:29:01;7.40;99.90
60868;DHT22;46702;48.370;10.794;2024-03-06T14:31:27;7.30;99.90
60868;DHT22;46702;48.370;10.794;2024-03-06T14:33:53;7.00;99.90
60868;DHT22;46702;48.370;10.794;2024-03-06T14:36:19;6.90;99.90
60868;DHT22;46702;48.370;10.794;2024-03-06T14:38:47;6.90;99.90
60868;DHT22;46702;48.370;10.794;2024-03-06T14:41:13;7.00;99.90
60868;DHT22;46702;48.370;10.794;2024-03-06T14:43:39;7.00;99.90
60868;DHT22;46702;48.370;10.794;2024-03-06T14:46:05;6.90;99.90
60868;DHT22;46702;48.370;10.794;2024-03-06T14:48:32;6.90;99.90
60868;DHT22;46702;48.370;10.794;2024-03-06T14:51:00;6.90;99.90
60868;DHT22;46702;48.370;10.794;2024-03-06T14:53:25;6.80;99.90
60868;DHT22;46702;48.370;10.794;2024-03-06T14:55:51;6.90;99.90
60868;DHT22;46702;48.370;10.794;2024-03-06T14:58:17;6.80;99.90
60868;DHT22;46702;48.370;10.794;2024-03-06T15:00:46;6.80;99.90
60868;DHT22;46702;48.370;10.794;2024-03-06T15:03:11;6.60;99.90
60868;DHT22;46702;48.370;10.794;2024-03-06T15:05:37;6.50;99.90
60868;DHT22;46702;48.370;10.794;2024-03-06T15:08:03;6.50;99.90
60868;DHT22;46702;48.370;10.794;2024-03-06T15:10:30;6.50;99.90
60868;DHT22;46702;48.370;10.794;2024-03-06T15:12:58;6.50;99.90
60868;DHT22;46702;48.370;10.794;2024-03-06T15:15:26;6.50;99.90
60868;DHT22;46702;48.370;10.794;2024-03-06T15:17:58;6.50;99.90
60868;DHT22;46702;48.370;10.794;2024-03-06T15:20:24;6.60;99.90
60868;DHT22;46702;48.370;10.794;2024-03-06T15:22:51;6.50;99.90
60868;DHT22;46702;48.370;10.794;2024-03-06T15:25:19;6.60;99.90
60868;DHT22;46702;48.370;10.794;2024-03-06T15:27:45;6.60;99.90
60868;DHT22;46702;48.370;10.794;2024-03-06T15:30:12;6.50;99.90
60868;DHT22;46702;48.370;10.794;2024-03-06T15:32:39;6.50;99.90
60868;DHT22;46702;48.370;10.794;2024-03-06T15:35:05;6.50;99.90
60868;DHT22;46702;48.370;10.794;2024-03-06T15:37:31;6.50;99.90
60868;DHT22;46702;48.370;10.794;2024-03-06T15:39:58;6.50;99.90
60868;DHT22;46702;48.370;10.794;2024-03-06T15:42:24;6.50;99.90
60868;DHT22;46702;48.370;10.794;2024-03-06T15:44:51;6.60;99.90
60868;DHT22;46702;48.370;10.794;2024-03-06T15:47:18;6.60;99.90
60868;DHT22;46702;48.370;10.794;2024-03-06T15:49:44;6.50;99.90
60868;DHT22;46702;48.370;10.794;2024-03-06T15:52:10;6.60;99.90